createdAt,value
2017-06-23T00:01:39.897Z,20.50
2017-06-23T00:04:06.436Z,20.40
2017-06-23T00:06:32.901Z,20.40
2017-06-23T00:08:59.709Z,20.40
2017-06-23T00:11:26.301Z,20.50
2017-06-23T00:14:00.425Z,20.50
2017-06-23T00:16:26.879Z,20.50
2017-06-23T00:18:53.331Z,20.50
2017-06-23T00:21:19.820Z,20.30
2017-06-23T00:23:46.292Z,20.40
2017-06-23T00:26:12.807Z,20.40
2017-06-23T00:28:39.568Z,20.30
2017-06-23T00:31:06.328Z,20.30
2017-06-23T00:33:32.778Z,20.20
2017-06-23T00:35:59.240Z,20.30
2017-06-23T00:38:25.685Z,20.20
2017-06-23T00:40:59.108Z,20.40
2017-06-23T00:43:25.524Z,20.50
2017-06-23T00:45:52.166Z,20.40
2017-06-23T00:48:18.649Z,20.60
2017-06-23T00:50:45.298Z,20.60
2017-06-23T00:53:12.782Z,20.60
2017-06-23T00:55:39.228Z,20.60
2017-06-23T00:58:06.408Z,20.50
2017-06-23T01:00:32.856Z,20.50
2017-06-23T01:02:59.356Z,20.50
2017-06-23T01:05:26.515Z,20.40
2017-06-23T01:07:53.003Z,20.30
2017-06-23T01:10:20.131Z,20.40
2017-06-23T01:12:46.555Z,20.30
2017-06-23T01:15:13.074Z,20.50
2017-06-23T01:17:39.488Z,20.60
2017-06-23T01:20:06.000Z,20.60
2017-06-23T01:22:32.436Z,20.50
2017-06-23T01:24:58.880Z,20.50
2017-06-23T01:27:26.068Z,20.40
2017-06-23T01:29:52.561Z,20.30
2017-06-23T01:32:19.771Z,20.30
2017-06-23T01:34:46.272Z,20.20
2017-06-23T01:37:12.692Z,20.00
2017-06-23T01:39:39.391Z,20.30
2017-06-23T01:42:05.840Z,20.40
2017-06-23T01:44:32.335Z,20.30
2017-06-23T01:46:58.856Z,20.40
2017-06-23T01:49:25.310Z,20.50
2017-06-23T01:51:51.809Z,20.50
2017-06-23T01:54:18.336Z,20.40
2017-06-23T01:56:44.762Z,20.40
2017-06-23T01:59:11.537Z,20.30
2017-06-23T02:01:37.985Z,20.30
2017-06-23T02:04:04.547Z,20.20
2017-06-23T02:06:31.732Z,20.20
2017-06-23T02:08:58.133Z,20.20
2017-06-23T02:11:24.565Z,20.20
2017-06-23T02:13:50.996Z,20.20
2017-06-23T02:16:18.147Z,20.30
2017-06-23T02:18:44.643Z,20.20
2017-06-23T02:21:11.108Z,20.20
2017-06-23T02:23:38.316Z,20.30
2017-06-23T02:26:04.768Z,20.30
2017-06-23T02:28:31.251Z,20.50
2017-06-23T02:30:57.644Z,20.50
2017-06-23T02:33:24.072Z,20.40
2017-06-23T02:35:50.615Z,20.20
2017-06-23T02:38:17.060Z,20.30
2017-06-23T02:40:43.482Z,20.30
2017-06-23T02:43:09.892Z,20.30
2017-06-23T02:45:37.129Z,20.30
2017-06-23T02:48:07.193Z,20.20
2017-06-23T02:50:33.632Z,20.20
2017-06-23T02:53:00.840Z,20.20
2017-06-23T02:55:27.364Z,20.20
2017-06-23T02:57:53.818Z,20.20
2017-06-23T03:00:20.308Z,20.30
2017-06-23T03:02:50.843Z,20.20
2017-06-23T03:05:17.309Z,20.10
2017-06-23T03:07:43.753Z,20.00
2017-06-23T03:10:10.915Z,20.00
2017-06-23T03:12:38.137Z,20.00
2017-06-23T03:15:04.552Z,19.90
2017-06-23T03:17:30.991Z,19.90
2017-06-23T03:19:57.481Z,19.90
2017-06-23T03:22:24.572Z,19.90
2017-06-23T03:24:51.757Z,20.00
2017-06-23T03:27:18.270Z,20.00
2017-06-23T03:29:44.747Z,20.00
2017-06-23T03:32:11.203Z,20.00
2017-06-23T03:34:37.662Z,20.10
2017-06-23T03:37:04.884Z,20.00
2017-06-23T03:39:31.305Z,20.00
2017-06-23T03:41:57.760Z,20.00
2017-06-23T03:44:24.204Z,19.90
2017-06-23T03:46:50.693Z,19.90
2017-06-23T03:49:17.116Z,20.00
2017-06-23T03:51:44.069Z,19.90
2017-06-23T03:54:10.621Z,19.90
2017-06-23T03:56:37.298Z,19.80
2017-06-23T03:59:03.736Z,19.80
2017-06-23T04:01:30.348Z,19.70
2017-06-23T04:03:56.912Z,19.70
2017-06-23T04:06:24.080Z,19.80
2017-06-23T04:08:50.541Z,19.80
2017-06-23T04:11:16.958Z,19.80
2017-06-23T04:13:44.518Z,19.80
2017-06-23T04:16:10.940Z,19.80
2017-06-23T04:18:37.605Z,19.70
2017-06-23T04:21:04.157Z,19.90
2017-06-23T04:23:30.638Z,19.70
2017-06-23T04:25:57.072Z,19.80
2017-06-23T04:28:23.483Z,19.90
2017-06-23T04:30:49.931Z,20.00
2017-06-23T04:33:17.664Z,20.10
2017-06-23T04:35:44.117Z,20.00
2017-06-23T04:38:11.121Z,20.10
2017-06-23T04:40:37.550Z,20.20
2017-06-23T04:43:03.960Z,20.10
2017-06-23T04:45:30.423Z,20.20
2017-06-23T04:47:56.824Z,20.20
2017-06-23T04:50:23.996Z,20.00
2017-06-23T04:52:50.586Z,20.00
2017-06-23T04:55:17.761Z,20.10
2017-06-23T04:57:44.302Z,20.00
2017-06-23T05:00:10.717Z,20.10
2017-06-23T05:02:37.890Z,20.10
2017-06-23T05:05:04.422Z,20.10
2017-06-23T05:07:30.888Z,20.20
2017-06-23T05:09:57.377Z,20.20
2017-06-23T05:12:24.603Z,20.20
2017-06-23T05:14:51.109Z,20.20
2017-06-23T05:17:17.721Z,19.90
2017-06-23T05:19:44.168Z,20.00
2017-06-23T05:22:10.594Z,20.00
2017-06-23T05:24:37.080Z,20.10
2017-06-23T05:27:03.516Z,20.30
2017-06-23T05:29:29.980Z,20.40
2017-06-23T05:31:56.396Z,20.40
2017-06-23T05:34:22.962Z,20.50
2017-06-23T05:36:50.120Z,20.50
2017-06-23T05:39:16.645Z,20.50
2017-06-23T05:41:44.608Z,20.50
2017-06-23T05:44:11.052Z,20.40
2017-06-23T05:46:37.475Z,20.30
2017-06-23T05:49:04.680Z,20.50
2017-06-23T05:51:32.993Z,20.50
2017-06-23T05:53:59.444Z,20.60
2017-06-23T05:56:25.896Z,20.70
2017-06-23T05:58:52.352Z,20.80
2017-06-23T06:01:19.948Z,20.80
2017-06-23T06:03:46.454Z,20.80
2017-06-23T06:06:12.888Z,20.70
2017-06-23T06:08:39.348Z,20.60
2017-06-23T06:11:05.791Z,20.60
2017-06-23T06:13:32.280Z,20.70
2017-06-23T06:15:58.829Z,20.90
2017-06-23T06:18:26.050Z,21.00
2017-06-23T06:20:52.544Z,21.00
2017-06-23T06:23:18.977Z,21.00
2017-06-23T06:25:45.756Z,21.10
2017-06-23T06:28:12.259Z,21.10
2017-06-23T06:30:38.677Z,21.00
2017-06-23T06:33:05.156Z,21.00
2017-06-23T06:35:31.563Z,21.00
2017-06-23T06:37:57.982Z,20.90
2017-06-23T06:40:24.664Z,20.90
2017-06-23T06:42:51.363Z,20.90
2017-06-23T06:45:18.532Z,21.00
2017-06-23T06:47:44.996Z,21.00
2017-06-23T06:50:11.431Z,21.00
2017-06-23T06:52:38.021Z,21.00
2017-06-23T06:55:04.604Z,21.00
2017-06-23T06:57:31.095Z,21.00
2017-06-23T06:59:57.534Z,21.20
2017-06-23T07:02:24.044Z,21.20
2017-06-23T07:04:51.073Z,21.30
2017-06-23T07:07:17.510Z,21.40
2017-06-23T07:09:44.040Z,21.50
2017-06-23T07:12:11.421Z,21.40
2017-06-23T07:14:38.620Z,21.40
2017-06-23T07:17:05.076Z,21.40
2017-06-23T07:19:31.517Z,21.60
2017-06-23T07:21:57.934Z,21.90
2017-06-23T07:24:24.377Z,22.00
2017-06-23T07:26:51.024Z,22.10
2017-06-23T07:29:17.416Z,22.00
2017-06-23T07:31:43.807Z,22.00
2017-06-23T07:34:10.200Z,22.00
2017-06-23T07:36:36.758Z,22.00
2017-06-23T07:39:03.229Z,21.90
2017-06-23T07:41:31.092Z,22.00
2017-06-23T07:43:57.531Z,22.20
2017-06-23T07:46:23.963Z,22.30
2017-06-23T07:48:50.436Z,22.20
2017-06-23T07:51:16.894Z,22.10
2017-06-23T07:53:43.331Z,22.10
2017-06-23T07:56:09.770Z,22.20
2017-06-23T07:58:36.185Z,22.10
2017-06-23T08:01:02.612Z,22.10
2017-06-23T08:03:29.480Z,22.20
2017-06-23T08:05:55.896Z,22.20
2017-06-23T08:08:22.284Z,22.10
2017-06-23T08:10:48.705Z,22.00
2017-06-23T08:13:15.128Z,21.90
2017-06-23T08:15:41.588Z,22.00
2017-06-23T08:18:08.009Z,22.10
2017-06-23T08:20:34.417Z,22.60
2017-06-23T08:23:00.849Z,23.10
2017-06-23T08:25:34.019Z,23.10
2017-06-23T08:28:00.453Z,23.20
2017-06-23T08:30:26.989Z,23.10
2017-06-23T08:32:53.406Z,23.20
2017-06-23T08:35:19.838Z,23.10
2017-06-23T08:37:46.999Z,23.40
2017-06-23T08:40:13.444Z,23.40
2017-06-23T08:42:39.848Z,23.20
2017-06-23T08:45:06.255Z,23.50
2017-06-23T08:47:37.988Z,23.50
2017-06-23T08:50:04.423Z,23.30
2017-06-23T08:52:30.835Z,23.40
2017-06-23T08:54:57.263Z,23.40
2017-06-23T08:57:23.669Z,23.60
2017-06-23T08:59:50.093Z,23.30
2017-06-23T09:02:16.536Z,23.40
2017-06-23T09:04:42.964Z,23.30
2017-06-23T09:07:09.673Z,23.30
2017-06-23T09:09:36.084Z,23.20
2017-06-23T09:12:02.521Z,23.20
2017-06-23T09:14:28.924Z,23.10
2017-06-23T09:16:55.339Z,23.20
2017-06-23T09:19:21.781Z,23.30
2017-06-23T09:21:48.257Z,23.30
2017-06-23T09:24:14.689Z,23.30
2017-06-23T09:26:41.149Z,23.30
2017-06-23T09:29:07.678Z,23.30
2017-06-23T09:31:34.837Z,23.30
2017-06-23T09:34:01.982Z,23.40
2017-06-23T09:36:28.484Z,23.40
2017-06-23T09:38:55.752Z,23.40
2017-06-23T09:41:22.155Z,23.40
2017-06-23T09:43:48.568Z,23.50
2017-06-23T09:46:14.980Z,23.70
2017-06-23T09:48:41.404Z,23.80
2017-06-23T09:51:07.839Z,23.80
2017-06-23T09:53:34.435Z,23.90
2017-06-23T09:56:00.891Z,23.80
2017-06-23T09:58:27.439Z,23.70
2017-06-23T10:00:53.905Z,23.50
2017-06-23T10:03:21.073Z,23.50
2017-06-23T10:05:48.237Z,23.50
2017-06-23T10:08:14.689Z,23.50
2017-06-23T10:10:41.126Z,23.70
2017-06-23T10:13:07.541Z,23.80
2017-06-23T10:15:33.932Z,23.80
2017-06-23T10:18:00.383Z,23.90
2017-06-23T10:20:26.836Z,24.00
2017-06-23T10:22:53.992Z,24.10
2017-06-23T10:25:20.754Z,24.10
2017-06-23T10:27:47.184Z,24.00
2017-06-23T10:30:14.378Z,23.90
2017-06-23T10:32:40.800Z,23.90
2017-06-23T10:35:12.964Z,23.80
2017-06-23T10:37:39.373Z,23.80
2017-06-23T10:40:08.946Z,23.80
2017-06-23T10:42:35.371Z,23.90
2017-06-23T10:45:01.768Z,23.90
2017-06-23T10:47:28.187Z,23.80
2017-06-23T10:49:55.344Z,23.80
2017-06-23T10:52:22.535Z,23.80
2017-06-23T10:54:51.859Z,23.80
2017-06-23T10:57:19.101Z,23.90
2017-06-23T10:59:45.544Z,23.80
2017-06-23T11:02:12.732Z,23.90
2017-06-23T11:04:39.151Z,23.90
2017-06-23T11:07:05.580Z,24.00
2017-06-23T11:09:32.017Z,24.10
2017-06-23T11:11:58.435Z,24.20
2017-06-23T11:14:24.868Z,24.30
2017-06-23T11:16:53.273Z,24.40
2017-06-23T11:19:20.437Z,24.50
2017-06-23T11:21:46.888Z,24.50
2017-06-23T11:24:13.317Z,24.60
2017-06-23T11:26:39.764Z,24.70
2017-06-23T11:29:06.924Z,24.70
2017-06-23T11:31:36.612Z,24.70
2017-06-23T11:34:03.068Z,24.70
2017-06-23T11:36:29.481Z,24.80
2017-06-23T11:38:55.914Z,24.70
2017-06-23T11:41:22.327Z,24.70
2017-06-23T11:43:48.749Z,24.70
2017-06-23T11:46:15.188Z,24.70
2017-06-23T11:48:43.769Z,24.60
2017-06-23T11:51:10.220Z,24.60
2017-06-23T11:53:36.677Z,24.70
2017-06-23T11:56:03.131Z,24.60
2017-06-23T11:58:29.564Z,24.50
2017-06-23T12:00:55.977Z,24.40
2017-06-23T12:03:22.394Z,24.30
2017-06-23T12:05:48.812Z,24.30
2017-06-23T12:08:15.541Z,24.40
2017-06-23T12:10:42.088Z,24.50
2017-06-23T12:13:08.580Z,24.50
2017-06-23T12:15:35.005Z,24.40
2017-06-23T12:18:01.682Z,24.30
2017-06-23T12:20:28.136Z,24.30
2017-06-23T12:22:54.556Z,24.40
2017-06-23T12:25:20.984Z,24.20
2017-06-23T12:27:47.388Z,24.20
2017-06-23T12:30:13.811Z,24.30
2017-06-23T12:32:40.241Z,24.40
2017-06-23T12:35:06.664Z,24.50
2017-06-23T12:37:33.078Z,24.60
2017-06-23T12:39:59.578Z,24.70
2017-06-23T12:42:26.068Z,24.80
2017-06-23T12:44:52.785Z,25.00
2017-06-23T12:47:19.236Z,25.10
2017-06-23T12:49:45.659Z,25.40
2017-06-23T12:52:12.106Z,25.40
2017-06-23T12:54:38.542Z,25.50
2017-06-23T12:57:05.002Z,25.60
2017-06-23T12:59:31.406Z,25.70
2017-06-23T13:01:57.948Z,25.80
2017-06-23T13:04:24.374Z,25.80
2017-06-23T13:06:50.801Z,26.00
2017-06-23T13:09:17.308Z,26.00
2017-06-23T13:11:44.549Z,26.00
2017-06-23T13:14:10.985Z,26.00
2017-06-23T13:16:37.401Z,25.90
2017-06-23T13:19:03.927Z,25.80
2017-06-23T13:21:30.429Z,25.70
2017-06-23T13:23:56.904Z,25.80
2017-06-23T13:26:23.330Z,25.70
2017-06-23T13:28:49.797Z,25.70
2017-06-23T13:31:16.282Z,25.70
2017-06-23T13:33:42.873Z,25.80
2017-06-23T13:36:09.297Z,25.90
2017-06-23T13:38:35.717Z,25.90
2017-06-23T13:41:02.124Z,25.90
2017-06-23T13:43:28.544Z,25.90
2017-06-23T13:45:55.714Z,26.00
2017-06-23T13:48:22.176Z,26.00
2017-06-23T13:50:48.624Z,25.90
2017-06-23T13:53:15.043Z,25.90
2017-06-23T13:55:41.485Z,26.00
2017-06-23T13:58:07.917Z,25.90
2017-06-23T14:00:34.420Z,26.00
2017-06-23T14:03:00.862Z,26.10
2017-06-23T14:05:27.322Z,26.10
2017-06-23T14:07:53.776Z,26.20
2017-06-23T14:10:21.586Z,26.20
2017-06-23T14:12:48.117Z,26.10
2017-06-23T14:15:15.314Z,26.10
2017-06-23T14:17:41.727Z,26.00
2017-06-23T14:20:08.193Z,26.00
2017-06-23T14:22:35.360Z,26.10
2017-06-23T14:25:02.290Z,26.00
2017-06-23T14:27:28.733Z,26.10
2017-06-23T14:29:56.012Z,26.10
2017-06-23T14:32:22.463Z,26.10
2017-06-23T14:34:48.948Z,26.10
2017-06-23T14:37:15.368Z,26.10
2017-06-23T14:39:41.799Z,25.90
2017-06-23T14:42:08.227Z,25.70
2017-06-23T14:44:34.672Z,26.10
2017-06-23T14:47:01.097Z,25.90
2017-06-23T14:49:27.509Z,26.00
2017-06-23T14:51:53.937Z,25.90
2017-06-23T14:54:20.390Z,25.90
2017-06-23T14:56:46.829Z,26.00
2017-06-23T14:59:13.241Z,26.10
2017-06-23T15:01:39.649Z,26.00
2017-06-23T15:04:06.057Z,26.00
2017-06-23T15:06:32.472Z,25.90
2017-06-23T15:08:58.889Z,25.90
2017-06-23T15:11:25.296Z,25.80
2017-06-23T15:13:52.440Z,25.80
2017-06-23T15:16:18.869Z,25.80
2017-06-23T15:18:45.343Z,25.90
2017-06-23T15:21:11.763Z,26.00
2017-06-23T15:23:38.200Z,26.00
2017-06-23T15:26:05.164Z,26.00
2017-06-23T15:28:31.623Z,25.90
2017-06-23T15:30:58.058Z,25.90
2017-06-23T15:33:24.482Z,25.80
2017-06-23T15:35:51.085Z,25.90
2017-06-23T15:38:17.533Z,25.90
2017-06-23T15:40:43.968Z,25.90
2017-06-23T15:43:10.464Z,26.00
2017-06-23T15:45:36.881Z,25.90
2017-06-23T15:48:03.292Z,25.80
2017-06-23T15:50:29.777Z,25.90
2017-06-23T15:52:56.273Z,25.90
2017-06-23T15:55:22.708Z,25.90
2017-06-23T15:57:49.951Z,25.90
2017-06-23T16:00:17.114Z,25.70
2017-06-23T16:02:43.520Z,25.70
2017-06-23T16:05:10.703Z,25.70
2017-06-23T16:07:37.101Z,25.70
2017-06-23T16:10:03.581Z,25.80
2017-06-23T16:12:29.996Z,25.80
2017-06-23T16:14:56.489Z,25.80
2017-06-23T16:17:22.892Z,25.80
2017-06-23T16:19:49.388Z,25.70
2017-06-23T16:22:17.340Z,25.70
2017-06-23T16:24:44.513Z,25.70
2017-06-23T16:27:10.953Z,25.70
2017-06-23T16:29:37.436Z,25.70
2017-06-23T16:32:03.925Z,25.50
2017-06-23T16:34:30.427Z,25.70
2017-06-23T16:36:58.024Z,25.70
2017-06-23T16:39:24.474Z,25.70
2017-06-23T16:41:51.002Z,25.70
2017-06-23T16:44:17.431Z,25.40
2017-06-23T16:46:43.996Z,25.70
2017-06-23T16:49:10.438Z,25.70
2017-06-23T16:51:36.841Z,25.70
2017-06-23T16:54:03.305Z,25.60
2017-06-23T16:56:29.728Z,25.50
2017-06-23T16:58:56.148Z,25.70
2017-06-23T17:01:22.541Z,25.70
2017-06-23T17:03:48.978Z,25.70
2017-06-23T17:06:16.243Z,25.60
2017-06-23T17:08:47.265Z,25.50
2017-06-23T17:11:13.696Z,25.50
2017-06-23T17:13:40.093Z,25.40
2017-06-23T17:16:06.503Z,25.40
2017-06-23T17:18:32.888Z,25.40
2017-06-23T17:20:59.314Z,25.40
2017-06-23T17:23:29.919Z,25.40
2017-06-23T17:25:56.332Z,25.30
2017-06-23T17:28:22.804Z,25.30
2017-06-23T17:30:49.195Z,25.20
2017-06-23T17:33:15.653Z,25.30
2017-06-23T17:35:42.185Z,25.30
2017-06-23T17:38:08.620Z,25.20
2017-06-23T17:40:35.072Z,25.00
2017-06-23T17:43:01.544Z,25.20
2017-06-23T17:45:28.070Z,25.10
2017-06-23T17:47:54.458Z,25.20
2017-06-23T17:50:20.881Z,25.00
2017-06-23T17:52:47.266Z,25.10
2017-06-23T17:55:13.683Z,25.10
2017-06-23T17:57:40.819Z,25.00
2017-06-23T18:00:08.004Z,25.00
2017-06-23T18:02:34.392Z,25.00
2017-06-23T18:05:00.786Z,25.00
2017-06-23T18:07:27.191Z,25.00
2017-06-23T18:09:53.584Z,24.90
2017-06-23T18:12:20.002Z,25.00
2017-06-23T18:14:46.399Z,24.90
2017-06-23T18:17:12.796Z,24.80
2017-06-23T18:19:39.204Z,24.80
2017-06-23T18:22:05.627Z,24.80
2017-06-23T18:24:32.066Z,24.80
2017-06-23T18:26:58.460Z,24.80
2017-06-23T18:29:24.862Z,24.80
2017-06-23T18:31:51.275Z,24.80
2017-06-23T18:34:17.644Z,24.80
2017-06-23T18:36:44.036Z,24.70
2017-06-23T18:39:10.483Z,24.80
2017-06-23T18:41:37.624Z,24.60
2017-06-23T18:44:04.024Z,24.60
2017-06-23T18:46:30.458Z,24.70
2017-06-23T18:48:56.873Z,24.70
2017-06-23T18:51:23.284Z,24.70
2017-06-23T18:53:49.721Z,24.70
2017-06-23T18:56:16.153Z,24.50
2017-06-23T18:58:42.572Z,24.50
2017-06-23T19:01:08.957Z,24.60
2017-06-23T19:03:35.366Z,24.50
2017-06-23T19:06:01.760Z,24.50
2017-06-23T19:08:28.956Z,24.40
2017-06-23T19:10:55.377Z,24.30
2017-06-23T19:13:21.800Z,24.40
2017-06-23T19:15:48.185Z,24.40
2017-06-23T19:18:14.585Z,24.20
2017-06-23T19:20:40.974Z,24.20
2017-06-23T19:23:08.766Z,24.10
2017-06-23T19:25:35.169Z,24.10
2017-06-23T19:28:01.568Z,24.00
2017-06-23T19:30:30.988Z,24.00
2017-06-23T19:32:57.401Z,23.90
2017-06-23T19:35:23.804Z,23.90
2017-06-23T19:37:50.208Z,24.00
2017-06-23T19:40:16.608Z,23.90
2017-06-23T19:42:43.749Z,23.90
2017-06-23T19:45:10.172Z,23.90
2017-06-23T19:47:36.589Z,23.60
2017-06-23T19:50:03.012Z,23.70
2017-06-23T19:52:29.406Z,23.70
2017-06-23T19:54:55.836Z,23.70
2017-06-23T19:57:22.245Z,23.50
2017-06-23T19:59:48.641Z,23.60
2017-06-23T20:02:15.035Z,23.50
2017-06-23T20:04:41.518Z,23.40
2017-06-23T20:07:08.097Z,23.40
2017-06-23T20:09:34.673Z,23.20
2017-06-23T20:12:01.089Z,23.10
2017-06-23T20:14:27.518Z,23.30
2017-06-23T20:16:53.924Z,23.30
2017-06-23T20:19:20.341Z,23.10
2017-06-23T20:21:46.760Z,23.00
2017-06-23T20:24:13.195Z,22.60
2017-06-23T20:26:39.621Z,22.40
2017-06-23T20:29:06.773Z,22.60
2017-06-23T20:31:33.283Z,22.60
2017-06-23T20:33:59.800Z,22.50
2017-06-23T20:36:26.252Z,22.30
2017-06-23T20:38:52.646Z,22.20
2017-06-23T20:41:19.105Z,22.50
2017-06-23T20:43:45.529Z,22.30
2017-06-23T20:46:12.506Z,22.40
2017-06-23T20:48:38.901Z,22.40
2017-06-23T20:51:06.254Z,22.40
2017-06-23T20:53:32.757Z,22.40
2017-06-23T20:55:59.189Z,22.40
2017-06-23T20:58:25.580Z,22.30
2017-06-23T21:01:01.750Z,22.40
2017-06-23T21:03:28.972Z,22.30
2017-06-23T21:05:56.138Z,22.40
2017-06-23T21:08:23.811Z,22.30
2017-06-23T21:10:50.210Z,22.40
2017-06-23T21:13:18.225Z,22.20
2017-06-23T21:15:44.738Z,22.20
2017-06-23T21:18:11.155Z,22.20
2017-06-23T21:20:37.684Z,22.10
2017-06-23T21:23:04.122Z,22.00
2017-06-23T21:25:30.684Z,22.00
2017-06-23T21:27:57.100Z,21.90
2017-06-23T21:30:23.595Z,21.90
2017-06-23T21:32:49.992Z,22.00
2017-06-23T21:35:16.384Z,21.80
2017-06-23T21:37:42.789Z,21.30
2017-06-23T21:40:09.598Z,21.70
2017-06-23T21:42:35.989Z,21.70
2017-06-23T21:45:02.389Z,21.60
2017-06-23T21:47:28.774Z,21.60
2017-06-23T21:49:55.201Z,21.50
2017-06-23T21:52:21.619Z,21.50
2017-06-23T21:54:48.118Z,21.50
2017-06-23T21:57:16.296Z,21.50
2017-06-23T21:59:42.736Z,21.50
2017-06-23T22:02:09.132Z,21.40
2017-06-23T22:04:35.568Z,21.40
2017-06-23T22:07:01.994Z,21.40
2017-06-23T22:09:28.645Z,21.40
2017-06-23T22:11:56.603Z,21.40
2017-06-23T22:14:23.057Z,21.40
2017-06-23T22:16:51.221Z,21.40
2017-06-23T22:19:19.152Z,21.50
2017-06-23T22:21:45.721Z,21.30
2017-06-23T22:24:14.034Z,21.10
2017-06-23T22:26:56.662Z,21.10
2017-06-23T22:29:23.745Z,20.90
2017-06-23T22:31:50.216Z,20.80
2017-06-23T22:34:16.732Z,20.80
2017-06-23T22:36:43.134Z,20.80
2017-06-23T22:39:09.880Z,20.70
2017-06-23T22:41:36.299Z,20.60
2017-06-23T22:44:02.770Z,20.50
2017-06-23T22:46:29.216Z,20.40
2017-06-23T22:48:55.619Z,20.40
2017-06-23T22:51:22.043Z,20.10
2017-06-23T22:53:48.481Z,20.00
2017-06-23T22:56:14.903Z,19.90
2017-06-23T22:58:41.326Z,19.60
2017-06-23T23:01:07.756Z,19.50
2017-06-23T23:03:34.236Z,19.40
2017-06-23T23:06:00.645Z,19.50
2017-06-23T23:08:27.112Z,19.50
2017-06-23T23:10:53.513Z,19.50
2017-06-23T23:13:19.996Z,19.40
2017-06-23T23:15:46.418Z,19.40
2017-06-23T23:18:12.828Z,19.50
2017-06-23T23:20:39.235Z,19.70
2017-06-23T23:23:05.636Z,19.90
2017-06-23T23:25:32.039Z,20.00
2017-06-23T23:27:58.464Z,20.00
2017-06-23T23:30:24.889Z,20.00
2017-06-23T23:32:51.331Z,20.20
2017-06-23T23:35:17.791Z,20.20
2017-06-23T23:37:44.304Z,20.20
2017-06-23T23:40:10.972Z,20.20
2017-06-23T23:42:37.441Z,20.40
2017-06-23T23:45:03.849Z,20.30
2017-06-23T23:47:30.243Z,20.20
2017-06-23T23:49:56.640Z,20.00
2017-06-23T23:52:23.426Z,20.10
2017-06-23T23:54:49.844Z,20.00
2017-06-23T23:57:16.280Z,20.00
2017-06-23T23:59:42.712Z,20.00
